sensor_id;sensor_type;location;lat;lon;timestamp;pressure;altitude;pressure_sealevel;temperature;humidity
35619;BME280;21743;55.786;37.168;2022-09-19T00:01:10;97005.66;;;14.18;85.57
35619;BME280;21743;55.786;37.168;2022-09-19T00:03:40;96988.94;;;14.19;85.35
35619;BME280;21743;55.786;37.168;2022-09-19T00:06:06;97014.06;;;14.20;85.50
35619;BME280;21743;55.786;37.168;2022-09-19T00:08:32;97005.97;;;14.22;85.58
35619;BME280;21743;55.786;37.168;2022-09-19T00:11:00;97006.53;;;14.24;85.50
35619;BME280;21743;55.786;37.168;2022-09-19T00:13:26;97002.09;;;14.24;85.44
35619;BME280;21743;55.786;37.168;2022-09-19T00:15:51;97001.84;;;14.26;85.25
35619;BME280;21743;55.786;37.168;2022-09-19T00:18:17;97009.47;;;14.27;85.31
35619;BME280;21743;55.786;37.168;2022-09-19T00:20:43;97001.41;;;14.29;85.45
35619;BME280;21743;55.786;37.168;2022-09-19T00:23:15;96990.94;;;14.29;85.40
35619;BME280;21743;55.786;37.168;2022-09-19T00:26:00;96985.47;;;14.30;85.20
35619;BME280;21743;55.786;37.168;2022-09-19T00:28:27;96982.06;;;14.30;85.19
35619;BME280;21743;55.786;37.168;2022-09-19T00:30:56;96976.84;;;14.30;85.19
35619;BME280;21743;55.786;37.168;2022-09-19T00:33:23;96975.47;;;14.27;85.62
35619;BME280;21743;55.786;37.168;2022-09-19T00:35:52;96981.97;;;14.25;85.61
35619;BME280;21743;55.786;37.168;2022-09-19T00:38:23;96979.91;;;14.27;85.45
35619;BME280;21743;55.786;37.168;2022-09-19T00:40:49;96963.75;;;14.30;85.42
35619;BME280;21743;55.786;37.168;2022-09-19T00:43:15;96965.09;;;14.32;85.21
35619;BME280;21743;55.786;37.168;2022-09-19T00:45:42;96952.34;;;14.36;85.17
35619;BME280;21743;55.786;37.168;2022-09-19T00:48:08;96957.03;;;14.34;85.12
35619;BME280;21743;55.786;37.168;2022-09-19T00:50:35;96952.59;;;14.34;85.08
35619;BME280;21743;55.786;37.168;2022-09-19T00:53:04;96950.22;;;14.33;85.12
35619;BME280;21743;55.786;37.168;2022-09-19T00:55:31;96948.38;;;14.33;85.16
35619;BME280;21743;55.786;37.168;2022-09-19T00:58:11;96943.16;;;14.33;85.27
35619;BME280;21743;55.786;37.168;2022-09-19T01:00:39;96937.59;;;14.30;85.85
35619;BME280;21743;55.786;37.168;2022-09-19T01:03:05;96934.19;;;14.29;85.80
35619;BME280;21743;55.786;37.168;2022-09-19T01:06:24;96938.84;;;14.27;85.86
35619;BME280;21743;55.786;37.168;2022-09-19T01:13:38;96946.56;;;14.34;85.63
35619;BME280;21743;55.786;37.168;2022-09-19T01:16:08;96940.03;;;14.36;85.48
35619;BME280;21743;55.786;37.168;2022-09-19T01:18:43;96940.59;;;14.38;85.42
35619;BME280;21743;55.786;37.168;2022-09-19T01:29:05;96932.88;;;14.43;85.56
35619;BME280;21743;55.786;37.168;2022-09-19T01:31:34;96930.50;;;14.42;86.16
35619;BME280;21743;55.786;37.168;2022-09-19T01:34:03;96927.88;;;14.42;86.16
35619;BME280;21743;55.786;37.168;2022-09-19T01:36:36;96918.22;;;14.42;86.49
35619;BME280;21743;55.786;37.168;2022-09-19T01:39:03;96917.75;;;14.46;86.03
35619;BME280;21743;55.786;37.168;2022-09-19T01:41:35;96928.44;;;14.44;85.99
35619;BME280;21743;55.786;37.168;2022-09-19T01:44:02;96923.75;;;14.46;86.01
35619;BME280;21743;55.786;37.168;2022-09-19T01:46:46;96918.53;;;14.46;85.89
35619;BME280;21743;55.786;37.168;2022-09-19T01:49:23;96916.47;;;14.48;86.06
35619;BME280;21743;55.786;37.168;2022-09-19T01:52:02;96907.38;;;14.51;86.01
35619;BME280;21743;55.786;37.168;2022-09-19T01:57:17;96904.47;;;14.52;85.75
35619;BME280;21743;55.786;37.168;2022-09-19T02:07:30;96888.78;;;14.52;85.87
35619;BME280;21743;55.786;37.168;2022-09-19T02:10:09;96895.31;;;14.50;85.80
35619;BME280;21743;55.786;37.168;2022-09-19T02:12:39;96891.00;;;14.43;86.07
35619;BME280;21743;55.786;37.168;2022-09-19T02:15:16;96890.69;;;14.40;86.16
35619;BME280;21743;55.786;37.168;2022-09-19T02:17:45;96897.50;;;14.41;86.17
35619;BME280;21743;55.786;37.168;2022-09-19T02:20:19;96893.88;;;14.42;86.03
35619;BME280;21743;55.786;37.168;2022-09-19T02:22:51;96892.03;;;14.42;85.99
35619;BME280;21743;55.786;37.168;2022-09-19T02:25:19;96892.47;;;14.39;85.98
35619;BME280;21743;55.786;37.168;2022-09-19T02:27:51;96890.69;;;14.40;86.21
35619;BME280;21743;55.786;37.168;2022-09-19T02:30:20;96878.41;;;14.40;86.10
35619;BME280;21743;55.786;37.168;2022-09-19T02:32:46;96873.16;;;14.40;85.94
35619;BME280;21743;55.786;37.168;2022-09-19T02:35:19;96877.38;;;14.41;85.98
35619;BME280;21743;55.786;37.168;2022-09-19T02:37:46;96862.28;;;14.32;86.00
35619;BME280;21743;55.786;37.168;2022-09-19T02:40:20;96863.41;;;14.36;85.99
35619;BME280;21743;55.786;37.168;2022-09-19T02:42:50;96866.78;;;14.36;86.00
35619;BME280;21743;55.786;37.168;2022-09-19T02:45:26;96868.38;;;14.37;86.16
35619;BME280;21743;55.786;37.168;2022-09-19T02:48:01;96857.13;;;14.37;86.17
35619;BME280;21743;55.786;37.168;2022-09-19T02:52:57;96852.44;;;14.39;85.92
35619;BME280;21743;55.786;37.168;2022-09-19T02:55:26;96852.44;;;14.39;86.13
35619;BME280;21743;55.786;37.168;2022-09-19T02:57:53;96858.47;;;14.39;85.90
35619;BME280;21743;55.786;37.168;2022-09-19T03:00:20;96851.66;;;14.38;86.15
35619;BME280;21743;55.786;37.168;2022-09-19T03:03:07;96851.66;;;14.38;85.89
35619;BME280;21743;55.786;37.168;2022-09-19T03:05:55;96856.09;;;14.38;86.08
35619;BME280;21743;55.786;37.168;2022-09-19T03:08:22;96853.25;;;14.39;86.00
35619;BME280;21743;55.786;37.168;2022-09-19T03:10:52;96845.38;;;14.39;86.04
35619;BME280;21743;55.786;37.168;2022-09-19T03:13:38;96849.63;;;14.40;85.78
35619;BME280;21743;55.786;37.168;2022-09-19T03:16:11;96843.34;;;14.41;85.66
35619;BME280;21743;55.786;37.168;2022-09-19T03:18:39;96845.50;;;14.45;85.69
35619;BME280;21743;55.786;37.168;2022-09-19T03:21:08;96843.91;;;14.43;85.43
35619;BME280;21743;55.786;37.168;2022-09-19T03:26:03;96833.34;;;14.38;85.63
35619;BME280;21743;55.786;37.168;2022-09-19T03:28:30;96837.78;;;14.38;85.45
35619;BME280;21743;55.786;37.168;2022-09-19T03:30:56;96840.97;;;14.40;85.42
35619;BME280;21743;55.786;37.168;2022-09-19T03:33:25;96840.97;;;14.40;85.22
35619;BME280;21743;55.786;37.168;2022-09-19T03:35:52;96832.53;;;14.38;85.11
35619;BME280;21743;55.786;37.168;2022-09-19T03:38:22;96840.00;;;14.29;84.90
35619;BME280;21743;55.786;37.168;2022-09-19T03:40:48;96827.31;;;14.21;84.94
35619;BME280;21743;55.786;37.168;2022-09-19T03:43:14;96827.88;;;14.23;85.10
35619;BME280;21743;55.786;37.168;2022-09-19T03:45:39;96830.47;;;14.23;85.16
35619;BME280;21743;55.786;37.168;2022-09-19T03:48:06;96827.06;;;14.23;84.87
35619;BME280;21743;55.786;37.168;2022-09-19T03:50:32;96823.59;;;14.17;84.77
35619;BME280;21743;55.786;37.168;2022-09-19T03:53:09;96827.81;;;14.18;84.78
35619;BME280;21743;55.786;37.168;2022-09-19T03:55:37;96833.28;;;14.17;84.75
35619;BME280;21743;55.786;37.168;2022-09-19T03:58:07;96830.09;;;14.15;84.56
35619;BME280;21743;55.786;37.168;2022-09-19T04:00:38;96831.81;;;14.09;84.09
35619;BME280;21743;55.786;37.168;2022-09-19T04:03:04;96834.91;;;14.06;84.34
35619;BME280;21743;55.786;37.168;2022-09-19T04:05:33;96829.22;;;14.09;84.14
35619;BME280;21743;55.786;37.168;2022-09-19T04:08:02;96859.00;;;14.08;83.38
35619;BME280;21743;55.786;37.168;2022-09-19T04:10:30;96855.44;;;13.97;82.22
35619;BME280;21743;55.786;37.168;2022-09-19T04:13:01;96844.00;;;13.87;82.73
35619;BME280;21743;55.786;37.168;2022-09-19T04:15:30;96854.50;;;13.75;77.37
35619;BME280;21743;55.786;37.168;2022-09-19T04:18:00;96847.16;;;13.72;80.88
35619;BME280;21743;55.786;37.168;2022-09-19T04:20:27;96863.53;;;13.67;80.70
35619;BME280;21743;55.786;37.168;2022-09-19T04:23:17;96863.75;;;13.66;80.35
35619;BME280;21743;55.786;37.168;2022-09-19T04:26:01;96866.19;;;13.56;78.89
35619;BME280;21743;55.786;37.168;2022-09-19T04:28:32;96866.53;;;13.48;80.15
35619;BME280;21743;55.786;37.168;2022-09-19T04:30:59;96864.50;;;13.50;80.37
35619;BME280;21743;55.786;37.168;2022-09-19T04:33:24;96869.72;;;13.50;79.22
35619;BME280;21743;55.786;37.168;2022-09-19T04:35:55;96870.88;;;13.42;78.22
35619;BME280;21743;55.786;37.168;2022-09-19T04:38:26;96880.78;;;13.40;78.79
35619;BME280;21743;55.786;37.168;2022-09-19T04:40:58;96868.41;;;13.35;77.58
35619;BME280;21743;55.786;37.168;2022-09-19T04:43:28;96877.72;;;13.31;77.39
35619;BME280;21743;55.786;37.168;2022-09-19T04:46:20;96881.94;;;13.21;77.56
35619;BME280;21743;55.786;37.168;2022-09-19T04:48:48;96878.06;;;13.23;77.95
35619;BME280;21743;55.786;37.168;2022-09-19T04:51:20;96882.84;;;13.15;76.97
35619;BME280;21743;55.786;37.168;2022-09-19T04:53:50;96879.91;;;13.11;77.53
35619;BME280;21743;55.786;37.168;2022-09-19T04:56:19;96876.94;;;13.08;77.17
35619;BME280;21743;55.786;37.168;2022-09-19T04:58:49;96867.63;;;13.12;77.38
35619;BME280;21743;55.786;37.168;2022-09-19T05:01:15;96862.31;;;13.18;77.02
35619;BME280;21743;55.786;37.168;2022-09-19T05:03:41;96860.25;;;13.20;77.20
35619;BME280;21743;55.786;37.168;2022-09-19T05:06:19;96864.34;;;13.16;76.55
35619;BME280;21743;55.786;37.168;2022-09-19T05:08:45;96853.66;;;13.06;75.90
35619;BME280;21743;55.786;37.168;2022-09-19T05:11:25;96864.56;;;13.03;76.75
35619;BME280;21743;55.786;37.168;2022-09-19T05:13:52;96859.00;;;12.99;75.62
35619;BME280;21743;55.786;37.168;2022-09-19T05:16:21;96842.13;;;12.90;75.55
35619;BME280;21743;55.786;37.168;2022-09-19T05:18:53;96845.63;;;12.96;76.08
35619;BME280;21743;55.786;37.168;2022-09-19T05:21:19;96853.13;;;12.92;75.85
35619;BME280;21743;55.786;37.168;2022-09-19T05:23:46;96845.97;;;12.88;74.65
35619;BME280;21743;55.786;37.168;2022-09-19T05:26:13;96842.47;;;12.82;75.88
35619;BME280;21743;55.786;37.168;2022-09-19T05:28:42;96851.97;;;12.88;75.56
35619;BME280;21743;55.786;37.168;2022-09-19T05:31:12;96849.38;;;12.88;75.29
35619;BME280;21743;55.786;37.168;2022-09-19T05:33:42;96845.16;;;12.87;75.52
35619;BME280;21743;55.786;37.168;2022-09-19T05:36:13;96861.53;;;12.94;75.84
35619;BME280;21743;55.786;37.168;2022-09-19T05:38:53;96850.50;;;12.92;74.40
35619;BME280;21743;55.786;37.168;2022-09-19T05:41:48;96850.41;;;12.76;74.89
35619;BME280;21743;55.786;37.168;2022-09-19T05:44:18;96844.16;;;12.77;75.21
35619;BME280;21743;55.786;37.168;2022-09-19T05:46:50;96862.56;;;12.82;75.48
35619;BME280;21743;55.786;37.168;2022-09-19T05:49:18;96851.19;;;12.76;74.24
35619;BME280;21743;55.786;37.168;2022-09-19T05:51:44;96848.69;;;12.69;74.71
35619;BME280;21743;55.786;37.168;2022-09-19T05:54:14;96852.44;;;12.74;74.83
35619;BME280;21743;55.786;37.168;2022-09-19T05:56:44;96847.81;;;12.76;74.30
35619;BME280;21743;55.786;37.168;2022-09-19T05:59:16;96845.09;;;12.82;73.94
35619;BME280;21743;55.786;37.168;2022-09-19T06:01:47;96848.16;;;12.79;73.16
35619;BME280;21743;55.786;37.168;2022-09-19T06:04:32;96862.66;;;12.75;73.79
35619;BME280;21743;55.786;37.168;2022-09-19T06:06:59;96850.75;;;12.79;74.26
35619;BME280;21743;55.786;37.168;2022-09-19T06:09:26;96863.81;;;12.79;74.04
35619;BME280;21743;55.786;37.168;2022-09-19T06:11:56;96863.81;;;12.79;73.96
35619;BME280;21743;55.786;37.168;2022-09-19T06:14:22;96864.47;;;12.75;74.43
35619;BME280;21743;55.786;37.168;2022-09-19T06:16:50;96850.19;;;12.77;74.29
35619;BME280;21743;55.786;37.168;2022-09-19T06:19:34;96853.72;;;12.83;74.81
35619;BME280;21743;55.786;37.168;2022-09-19T06:22:22;96835.88;;;12.91;74.79
35619;BME280;21743;55.786;37.168;2022-09-19T06:24:51;96861.59;;;12.99;74.74
35619;BME280;21743;55.786;37.168;2022-09-19T06:27:18;96862.88;;;13.09;74.49
35619;BME280;21743;55.786;37.168;2022-09-19T06:29:46;96856.41;;;13.11;73.44
35619;BME280;21743;55.786;37.168;2022-09-19T06:32:20;96848.06;;;13.14;73.67
35619;BME280;21743;55.786;37.168;2022-09-19T06:34:47;96874.66;;;13.11;72.14
35619;BME280;21743;55.786;37.168;2022-09-19T06:37:13;96863.31;;;13.17;72.91
35619;BME280;21743;55.786;37.168;2022-09-19T06:39:39;96851.06;;;13.18;72.43
35619;BME280;21743;55.786;37.168;2022-09-19T06:42:20;96854.13;;;13.15;72.38
35619;BME280;21743;55.786;37.168;2022-09-19T06:45:06;96851.06;;;13.06;72.72
35619;BME280;21743;55.786;37.168;2022-09-19T06:48:01;96851.88;;;12.95;72.46
35619;BME280;21743;55.786;37.168;2022-09-19T06:50:47;96872.63;;;12.90;73.31
35619;BME280;21743;55.786;37.168;2022-09-19T06:53:15;96868.31;;;12.84;73.26
35619;BME280;21743;55.786;37.168;2022-09-19T06:55:42;96869.78;;;12.68;74.16
35619;BME280;21743;55.786;37.168;2022-09-19T06:58:14;96875.13;;;12.50;74.44
35619;BME280;21743;55.786;37.168;2022-09-19T07:00:41;96872.50;;;12.38;75.05
35619;BME280;21743;55.786;37.168;2022-09-19T07:03:15;96890.66;;;12.33;75.70
35619;BME280;21743;55.786;37.168;2022-09-19T07:05:46;96896.72;;;12.15;76.04
35619;BME280;21743;55.786;37.168;2022-09-19T07:08:18;96896.28;;;12.18;76.58
35619;BME280;21743;55.786;37.168;2022-09-19T07:10:44;96885.50;;;12.15;75.81
35619;BME280;21743;55.786;37.168;2022-09-19T07:13:11;96890.44;;;12.35;76.43
35619;BME280;21743;55.786;37.168;2022-09-19T07:15:39;96888.97;;;12.74;75.66
35619;BME280;21743;55.786;37.168;2022-09-19T07:18:05;96889.88;;;12.91;74.79
35619;BME280;21743;55.786;37.168;2022-09-19T07:20:36;96884.22;;;12.82;72.72
35619;BME280;21743;55.786;37.168;2022-09-19T07:23:14;96886.16;;;12.63;73.50
35619;BME280;21743;55.786;37.168;2022-09-19T07:26:06;96901.44;;;12.48;73.42
35619;BME280;21743;55.786;37.168;2022-09-19T07:28:34;96892.59;;;12.49;74.06
35619;BME280;21743;55.786;37.168;2022-09-19T07:31:01;96901.66;;;12.47;72.86
35619;BME280;21743;55.786;37.168;2022-09-19T07:33:30;96894.41;;;12.37;73.01
35619;BME280;21743;55.786;37.168;2022-09-19T07:35:57;96906.28;;;12.33;71.74
35619;BME280;21743;55.786;37.168;2022-09-19T07:38:23;96910.44;;;12.22;72.57
35619;BME280;21743;55.786;37.168;2022-09-19T07:40:59;96909.31;;;12.18;72.98
35619;BME280;21743;55.786;37.168;2022-09-19T07:43:29;96908.53;;;12.18;72.55
35619;BME280;21743;55.786;37.168;2022-09-19T07:46:07;96910.19;;;12.12;73.12
35619;BME280;21743;55.786;37.168;2022-09-19T07:48:36;96915.03;;;11.97;72.76
35619;BME280;21743;55.786;37.168;2022-09-19T07:51:34;96920.63;;;11.82;73.63
35619;BME280;21743;55.786;37.168;2022-09-19T07:54:00;96924.97;;;11.70;73.89
35619;BME280;21743;55.786;37.168;2022-09-19T07:56:26;96923.59;;;11.68;73.82
35619;BME280;21743;55.786;37.168;2022-09-19T07:58:53;96928.66;;;11.62;73.59
35619;BME280;21743;55.786;37.168;2022-09-19T08:01:19;96927.31;;;11.60;73.67
35619;BME280;21743;55.786;37.168;2022-09-19T08:04:07;96943.38;;;11.57;73.17
35619;BME280;21743;55.786;37.168;2022-09-19T08:06:43;96932.88;;;11.45;72.85
35619;BME280;21743;55.786;37.168;2022-09-19T08:09:10;96926.63;;;11.46;73.32
35619;BME280;21743;55.786;37.168;2022-09-19T08:12:05;96931.28;;;11.44;71.51
35619;BME280;21743;55.786;37.168;2022-09-19T08:14:35;96934.31;;;11.41;73.27
35619;BME280;21743;55.786;37.168;2022-09-19T08:17:01;96943.44;;;11.50;73.08
35619;BME280;21743;55.786;37.168;2022-09-19T08:19:28;96935.56;;;11.57;72.84
35619;BME280;21743;55.786;37.168;2022-09-19T08:21:56;96936.13;;;11.59;72.76
35619;BME280;21743;55.786;37.168;2022-09-19T08:24:22;96933.16;;;11.55;72.51
35619;BME280;21743;55.786;37.168;2022-09-19T08:26:51;96927.53;;;11.58;72.66
35619;BME280;21743;55.786;37.168;2022-09-19T08:29:17;96937.78;;;11.53;72.13
35619;BME280;21743;55.786;37.168;2022-09-19T08:32:03;96922.38;;;11.52;71.60
35619;BME280;21743;55.786;37.168;2022-09-19T08:34:31;96927.00;;;11.50;71.66
35619;BME280;21743;55.786;37.168;2022-09-19T08:36:57;96933.59;;;11.52;71.76
35619;BME280;21743;55.786;37.168;2022-09-19T08:39:27;96928.75;;;11.56;72.17
35619;BME280;21743;55.786;37.168;2022-09-19T08:49:36;96923.69;;;11.43;71.21
35619;BME280;21743;55.786;37.168;2022-09-19T08:52:29;96924.91;;;11.40;71.38
35619;BME280;21743;55.786;37.168;2022-09-19T08:54:51;96931.28;;;11.44;71.43
35619;BME280;21743;55.786;37.168;2022-09-19T08:57:30;96914.88;;;11.44;70.90
35619;BME280;21743;55.786;37.168;2022-09-19T09:00:05;96939.75;;;11.40;71.22
35619;BME280;21743;55.786;37.168;2022-09-19T09:05:11;96944.53;;;11.43;71.16
35619;BME280;21743;55.786;37.168;2022-09-19T09:07:45;96939.16;;;11.38;71.70
35619;BME280;21743;55.786;37.168;2022-09-19T09:14:12;96955.09;;;11.30;72.76
35619;BME280;21743;55.786;37.168;2022-09-19T09:22:19;96955.72;;;11.25;73.67
35619;BME280;21743;55.786;37.168;2022-09-19T09:24:47;96956.94;;;11.22;74.12
35619;BME280;21743;55.786;37.168;2022-09-19T09:27:35;96953.19;;;11.18;73.68
35619;BME280;21743;55.786;37.168;2022-09-19T09:30:15;96944.34;;;11.19;74.03
35619;BME280;21743;55.786;37.168;2022-09-19T09:32:51;96946.53;;;11.22;73.63
35619;BME280;21743;55.786;37.168;2022-09-19T09:35:27;96950.00;;;11.16;73.83
35619;BME280;21743;55.786;37.168;2022-09-19T09:38:02;96959.75;;;11.21;74.01
35619;BME280;21743;55.786;37.168;2022-09-19T09:40:41;96955.16;;;11.23;73.88
35619;BME280;21743;55.786;37.168;2022-09-19T09:43:30;96957.88;;;11.10;73.62
35619;BME280;21743;55.786;37.168;2022-09-19T09:45:59;96964.09;;;11.09;74.53
35619;BME280;21743;55.786;37.168;2022-09-19T09:48:33;96964.81;;;11.16;74.18
35619;BME280;21743;55.786;37.168;2022-09-19T09:56:41;96947.75;;;11.20;74.33
35619;BME280;21743;55.786;37.168;2022-09-19T10:02:14;96953.09;;;11.07;74.01
35619;BME280;21743;55.786;37.168;2022-09-19T10:05:08;96950.50;;;11.07;74.17
35619;BME280;21743;55.786;37.168;2022-09-19T10:07:45;96948.25;;;11.10;74.59
35619;BME280;21743;55.786;37.168;2022-09-19T10:10:18;96957.66;;;11.11;74.13
35619;BME280;21743;55.786;37.168;2022-09-19T10:12:48;96959.69;;;11.09;74.65
35619;BME280;21743;55.786;37.168;2022-09-19T10:15:22;96948.06;;;11.12;74.68
35619;BME280;21743;55.786;37.168;2022-09-19T10:18:19;96966.31;;;11.05;74.84
35619;BME280;21743;55.786;37.168;2022-09-19T10:20:56;96955.31;;;11.03;75.34
35619;BME280;21743;55.786;37.168;2022-09-19T10:23:29;96959.72;;;11.03;75.12
35619;BME280;21743;55.786;37.168;2022-09-19T10:26:05;96956.88;;;10.86;75.05
35619;BME280;21743;55.786;37.168;2022-09-19T10:28:49;96950.75;;;10.80;75.79
35619;BME280;21743;55.786;37.168;2022-09-19T10:31:41;96951.47;;;10.87;75.87
35619;BME280;21743;55.786;37.168;2022-09-19T10:34:28;96952.72;;;11.03;76.04
35619;BME280;21743;55.786;37.168;2022-09-19T10:37:04;96945.66;;;11.10;75.39
35619;BME280;21743;55.786;37.168;2022-09-19T10:39:43;96953.94;;;11.01;75.44
35619;BME280;21743;55.786;37.168;2022-09-19T10:42:31;96945.78;;;10.97;76.20
35619;BME280;21743;55.786;37.168;2022-09-19T10:44:58;96943.31;;;11.02;76.28
35619;BME280;21743;55.786;37.168;2022-09-19T10:47:26;96957.06;;;11.09;76.17
35619;BME280;21743;55.786;37.168;2022-09-19T10:50:13;96933.28;;;11.06;76.57
35619;BME280;21743;55.786;37.168;2022-09-19T10:52:49;96934.59;;;10.97;76.06
35619;BME280;21743;55.786;37.168;2022-09-19T10:55:16;96943.03;;;10.92;76.64
35619;BME280;21743;55.786;37.168;2022-09-19T11:00:59;96933.44;;;11.11;76.67
35619;BME280;21743;55.786;37.168;2022-09-19T11:03:56;96918.09;;;11.03;76.60
35619;BME280;21743;55.786;37.168;2022-09-19T11:06:22;96935.72;;;11.01;76.12
35619;BME280;21743;55.786;37.168;2022-09-19T11:08:52;96943.66;;;10.87;76.99
35619;BME280;21743;55.786;37.168;2022-09-19T11:11:35;96947.75;;;10.77;77.22
35619;BME280;21743;55.786;37.168;2022-09-19T11:16:52;96943.97;;;10.73;77.78
35619;BME280;21743;55.786;37.168;2022-09-19T11:27:20;96935.72;;;10.82;77.77
35619;BME280;21743;55.786;37.168;2022-09-19T11:35:24;96920.31;;;10.81;77.89
35619;BME280;21743;55.786;37.168;2022-09-19T11:37:55;96923.63;;;10.88;77.81
35619;BME280;21743;55.786;37.168;2022-09-19T11:40:45;96922.63;;;10.89;78.05
35619;BME280;21743;55.786;37.168;2022-09-19T12:07:24;96946.66;;;10.66;78.64
35619;BME280;21743;55.786;37.168;2022-09-19T12:12:24;96937.47;;;10.64;78.53
35619;BME280;21743;55.786;37.168;2022-09-19T12:15:14;96937.88;;;10.61;79.08
35619;BME280;21743;55.786;37.168;2022-09-19T12:17:40;96953.91;;;10.57;79.38
35619;BME280;21743;55.786;37.168;2022-09-19T12:20:29;96946.75;;;10.53;79.58
35619;BME280;21743;55.786;37.168;2022-09-19T12:26:04;96953.22;;;10.44;79.71
35619;BME280;21743;55.786;37.168;2022-09-19T12:28:35;96960.00;;;10.45;79.85
35619;BME280;21743;55.786;37.168;2022-09-19T12:31:03;96951.78;;;10.48;79.76
35619;BME280;21743;55.786;37.168;2022-09-19T12:36:02;96958.75;;;10.54;79.63
35619;BME280;21743;55.786;37.168;2022-09-19T12:46:59;96962.78;;;10.50;79.89
35619;BME280;21743;55.786;37.168;2022-09-19T12:50:04;96970.38;;;10.51;79.69
35619;BME280;21743;55.786;37.168;2022-09-19T12:52:34;96969.41;;;10.46;79.97
35619;BME280;21743;55.786;37.168;2022-09-19T12:57:32;96988.22;;;10.41;80.08
35619;BME280;21743;55.786;37.168;2022-09-19T13:00:02;96983.19;;;10.46;80.45
35619;BME280;21743;55.786;37.168;2022-09-19T13:02:32;96968.72;;;10.57;80.20
35619;BME280;21743;55.786;37.168;2022-09-19T13:12:44;96989.41;;;10.45;80.24
35619;BME280;21743;55.786;37.168;2022-09-19T13:15:16;97002.22;;;10.40;80.21
35619;BME280;21743;55.786;37.168;2022-09-19T13:17:44;96996.88;;;10.35;80.58
35619;BME280;21743;55.786;37.168;2022-09-19T13:20:30;97000.84;;;10.38;80.35
35619;BME280;21743;55.786;37.168;2022-09-19T13:23:17;97008.06;;;10.36;80.74
35619;BME280;21743;55.786;37.168;2022-09-19T13:25:56;97006.25;;;10.36;81.17
35619;BME280;21743;55.786;37.168;2022-09-19T13:28:24;97017.25;;;10.38;80.98
35619;BME280;21743;55.786;37.168;2022-09-19T13:30:59;97016.09;;;10.28;81.06
35619;BME280;21743;55.786;37.168;2022-09-19T13:33:35;97010.53;;;10.17;81.49
35619;BME280;21743;55.786;37.168;2022-09-19T13:36:08;97012.94;;;10.19;81.43
35619;BME280;21743;55.786;37.168;2022-09-19T13:41:06;97028.28;;;10.34;81.48
35619;BME280;21743;55.786;37.168;2022-09-19T13:43:38;97023.41;;;10.44;81.18
35619;BME280;21743;55.786;37.168;2022-09-19T13:51:35;97032.19;;;10.49;81.17
35619;BME280;21743;55.786;37.168;2022-09-19T13:56:38;97038.84;;;10.39;81.22
35619;BME280;21743;55.786;37.168;2022-09-19T14:01:39;97046.84;;;10.37;81.80
35619;BME280;21743;55.786;37.168;2022-09-19T14:04:13;97052.41;;;10.41;81.60
35619;BME280;21743;55.786;37.168;2022-09-19T14:07:02;97053.00;;;10.43;81.47
35619;BME280;21743;55.786;37.168;2022-09-19T14:09:39;97053.41;;;10.40;81.53
35619;BME280;21743;55.786;37.168;2022-09-19T14:14:58;97060.00;;;10.42;81.89
35619;BME280;21743;55.786;37.168;2022-09-19T14:17:25;97070.00;;;10.45;81.77
35619;BME280;21743;55.786;37.168;2022-09-19T14:19:54;97071.19;;;10.43;81.45
35619;BME280;21743;55.786;37.168;2022-09-19T14:27:36;97091.25;;;10.36;82.14
35619;BME280;21743;55.786;37.168;2022-09-19T14:49:08;97100.78;;;10.48;81.94
35619;BME280;21743;55.786;37.168;2022-09-19T14:51:57;97112.59;;;10.51;82.23
35619;BME280;21743;55.786;37.168;2022-09-19T14:54:24;97107.75;;;10.54;81.90
35619;BME280;21743;55.786;37.168;2022-09-19T14:56:56;97115.53;;;10.61;81.47
35619;BME280;21743;55.786;37.168;2022-09-19T14:59:22;97109.13;;;10.64;81.39
35619;BME280;21743;55.786;37.168;2022-09-19T15:01:49;97126.34;;;10.58;81.32
35619;BME280;21743;55.786;37.168;2022-09-19T15:04:19;97120.19;;;10.52;81.77
35619;BME280;21743;55.786;37.168;2022-09-19T15:06:52;97133.59;;;10.49;81.63
35619;BME280;21743;55.786;37.168;2022-09-19T15:09:33;97133.00;;;10.47;81.83
35619;BME280;21743;55.786;37.168;2022-09-19T15:12:04;97148.41;;;10.49;81.82
35619;BME280;21743;55.786;37.168;2022-09-19T15:14:40;97149.81;;;10.45;81.70
35619;BME280;21743;55.786;37.168;2022-09-19T15:19:35;97162.44;;;10.28;82.22
35619;BME280;21743;55.786;37.168;2022-09-19T15:22:01;97153.44;;;10.31;82.51
35619;BME280;21743;55.786;37.168;2022-09-19T15:24:27;97165.44;;;10.32;82.61
35619;BME280;21743;55.786;37.168;2022-09-19T15:26:54;97162.66;;;10.33;82.61
35619;BME280;21743;55.786;37.168;2022-09-19T15:29:27;97173.25;;;10.32;82.44
35619;BME280;21743;55.786;37.168;2022-09-19T15:32:15;97181.84;;;10.39;82.42
35619;BME280;21743;55.786;37.168;2022-09-19T15:34:42;97176.84;;;10.37;82.37
35619;BME280;21743;55.786;37.168;2022-09-19T15:37:12;97172.63;;;10.36;82.04
35619;BME280;21743;55.786;37.168;2022-09-19T15:39:40;97192.84;;;10.28;82.30
35619;BME280;21743;55.786;37.168;2022-09-19T15:42:05;97195.84;;;10.25;82.63
35619;BME280;21743;55.786;37.168;2022-09-19T15:44:31;97187.84;;;10.26;82.34
35619;BME280;21743;55.786;37.168;2022-09-19T15:47:02;97199.88;;;10.20;82.48
35619;BME280;21743;55.786;37.168;2022-09-19T15:49:29;97212.44;;;10.17;83.02
35619;BME280;21743;55.786;37.168;2022-09-19T15:52:05;97211.84;;;10.15;82.65
35619;BME280;21743;55.786;37.168;2022-09-19T15:54:44;97215.63;;;10.12;83.08
35619;BME280;21743;55.786;37.168;2022-09-19T15:57:12;97234.47;;;10.21;82.82
35619;BME280;21743;55.786;37.168;2022-09-19T15:59:43;97234.44;;;10.28;82.76
35619;BME280;21743;55.786;37.168;2022-09-19T16:02:14;97234.03;;;10.31;82.42
35619;BME280;21743;55.786;37.168;2022-09-19T16:04:42;97238.88;;;10.20;82.72
35619;BME280;21743;55.786;37.168;2022-09-19T16:10:24;97270.41;;;10.11;82.86